sensor_id;sensor_type;location;lat;lon;timestamp;P1;durP1;ratioP1;P2;durP2;ratioP2
13973;SDS011;7060;43.770;4.008;2023-05-07T00:02:16;5.83;;;4.77;;
13973;SDS011;7060;43.770;4.008;2023-05-07T00:04:44;6.90;;;5.17;;
13973;SDS011;7060;43.770;4.008;2023-05-07T00:07:13;6.33;;;4.70;;
13973;SDS011;7060;43.770;4.008;2023-05-07T00:09:42;6.23;;;4.87;;
13973;SDS011;7060;43.770;4.008;2023-05-07T00:12:11;5.30;;;4.63;;
13973;SDS011;7060;43.770;4.008;2023-05-07T00:14:41;5.90;;;4.20;;
13973;SDS011;7060;43.770;4.008;2023-05-07T00:17:09;6.53;;;4.57;;
13973;SDS011;7060;43.770;4.008;2023-05-07T00:19:38;5.80;;;5.30;;
13973;SDS011;7060;43.770;4.008;2023-05-07T00:22:06;4.63;;;4.23;;
13973;SDS011;7060;43.770;4.008;2023-05-07T00:24:35;5.90;;;4.27;;
13973;SDS011;7060;43.770;4.008;2023-05-07T00:27:03;5.50;;;4.37;;
13973;SDS011;7060;43.770;4.008;2023-05-07T00:29:32;4.30;;;3.90;;
13973;SDS011;7060;43.770;4.008;2023-05-07T00:32:02;5.00;;;3.97;;
13973;SDS011;7060;43.770;4.008;2023-05-07T00:34:30;4.60;;;3.83;;
13973;SDS011;7060;43.770;4.008;2023-05-07T00:36:59;6.43;;;4.30;;
13973;SDS011;7060;43.770;4.008;2023-05-07T00:39:33;4.47;;;3.70;;
13973;SDS011;7060;43.770;4.008;2023-05-07T00:42:01;4.20;;;3.53;;
13973;SDS011;7060;43.770;4.008;2023-05-07T00:44:31;4.97;;;3.57;;
13973;SDS011;7060;43.770;4.008;2023-05-07T00:47:02;4.47;;;3.93;;
13973;SDS011;7060;43.770;4.008;2023-05-07T00:49:35;5.57;;;4.23;;
13973;SDS011;7060;43.770;4.008;2023-05-07T00:52:06;4.17;;;3.50;;
13973;SDS011;7060;43.770;4.008;2023-05-07T00:54:35;5.87;;;3.60;;
13973;SDS011;7060;43.770;4.008;2023-05-07T00:57:04;4.23;;;3.17;;
13973;SDS011;7060;43.770;4.008;2023-05-07T00:59:33;4.57;;;3.03;;
13973;SDS011;7060;43.770;4.008;2023-05-07T01:02:03;4.53;;;3.17;;
13973;SDS011;7060;43.770;4.008;2023-05-07T01:04:32;4.40;;;3.17;;
13973;SDS011;7060;43.770;4.008;2023-05-07T01:07:01;4.20;;;3.20;;
13973;SDS011;7060;43.770;4.008;2023-05-07T01:09:30;3.50;;;3.07;;
13973;SDS011;7060;43.770;4.008;2023-05-07T01:11:59;4.37;;;3.40;;
13973;SDS011;7060;43.770;4.008;2023-05-07T01:14:28;5.37;;;2.97;;
13973;SDS011;7060;43.770;4.008;2023-05-07T01:16:57;3.63;;;3.33;;
13973;SDS011;7060;43.770;4.008;2023-05-07T01:19:28;3.27;;;2.70;;
13973;SDS011;7060;43.770;4.008;2023-05-07T01:22:03;3.27;;;2.93;;
13973;SDS011;7060;43.770;4.008;2023-05-07T01:24:50;4.57;;;3.40;;
13973;SDS011;7060;43.770;4.008;2023-05-07T01:27:19;3.73;;;3.33;;
13973;SDS011;7060;43.770;4.008;2023-05-07T01:29:49;4.60;;;3.57;;
13973;SDS011;7060;43.770;4.008;2023-05-07T01:32:19;4.80;;;3.27;;
13973;SDS011;7060;43.770;4.008;2023-05-07T01:34:52;4.73;;;3.00;;
13973;SDS011;7060;43.770;4.008;2023-05-07T01:37:22;3.07;;;2.77;;
13973;SDS011;7060;43.770;4.008;2023-05-07T01:39:54;4.10;;;3.33;;
13973;SDS011;7060;43.770;4.008;2023-05-07T01:42:23;4.83;;;3.30;;
13973;SDS011;7060;43.770;4.008;2023-05-07T01:44:52;4.03;;;3.30;;
13973;SDS011;7060;43.770;4.008;2023-05-07T01:47:20;5.57;;;3.07;;
13973;SDS011;7060;43.770;4.008;2023-05-07T01:49:50;3.60;;;3.20;;
13973;SDS011;7060;43.770;4.008;2023-05-07T01:52:19;3.70;;;3.07;;
13973;SDS011;7060;43.770;4.008;2023-05-07T01:54:47;3.40;;;2.83;;
13973;SDS011;7060;43.770;4.008;2023-05-07T01:57:17;5.17;;;2.73;;
13973;SDS011;7060;43.770;4.008;2023-05-07T01:59:46;3.37;;;2.97;;
13973;SDS011;7060;43.770;4.008;2023-05-07T02:02:15;4.93;;;3.43;;
13973;SDS011;7060;43.770;4.008;2023-05-07T02:04:46;4.03;;;3.37;;
13973;SDS011;7060;43.770;4.008;2023-05-07T02:07:15;4.07;;;3.10;;
13973;SDS011;7060;43.770;4.008;2023-05-07T02:09:43;4.67;;;3.57;;
13973;SDS011;7060;43.770;4.008;2023-05-07T02:12:12;4.50;;;3.23;;
13973;SDS011;7060;43.770;4.008;2023-05-07T02:14:42;3.50;;;2.83;;
13973;SDS011;7060;43.770;4.008;2023-05-07T02:17:10;3.30;;;3.00;;
13973;SDS011;7060;43.770;4.008;2023-05-07T02:19:39;4.93;;;3.07;;
13973;SDS011;7060;43.770;4.008;2023-05-07T02:22:09;3.70;;;2.93;;
13973;SDS011;7060;43.770;4.008;2023-05-07T02:24:37;3.47;;;3.00;;
13973;SDS011;7060;43.770;4.008;2023-05-07T02:27:06;3.60;;;3.20;;
13973;SDS011;7060;43.770;4.008;2023-05-07T02:29:35;4.57;;;3.00;;
13973;SDS011;7060;43.770;4.008;2023-05-07T02:32:05;4.57;;;2.70;;
13973;SDS011;7060;43.770;4.008;2023-05-07T02:34:34;4.40;;;3.07;;
13973;SDS011;7060;43.770;4.008;2023-05-07T02:37:02;4.70;;;3.20;;
13973;SDS011;7060;43.770;4.008;2023-05-07T02:39:31;4.63;;;3.83;;
13973;SDS011;7060;43.770;4.008;2023-05-07T02:42:00;3.10;;;2.80;;
13973;SDS011;7060;43.770;4.008;2023-05-07T02:44:28;3.17;;;2.87;;
13973;SDS011;7060;43.770;4.008;2023-05-07T02:46:59;3.97;;;2.80;;
13973;SDS011;7060;43.770;4.008;2023-05-07T02:49:29;3.07;;;2.57;;
13973;SDS011;7060;43.770;4.008;2023-05-07T02:51:58;3.10;;;2.77;;
13973;SDS011;7060;43.770;4.008;2023-05-07T02:54:27;4.87;;;2.93;;
13973;SDS011;7060;43.770;4.008;2023-05-07T02:56:55;3.37;;;2.80;;
13973;SDS011;7060;43.770;4.008;2023-05-07T02:59:24;3.57;;;2.67;;
13973;SDS011;7060;43.770;4.008;2023-05-07T03:01:53;4.20;;;3.00;;
13973;SDS011;7060;43.770;4.008;2023-05-07T03:04:21;3.53;;;2.80;;
13973;SDS011;7060;43.770;4.008;2023-05-07T03:06:51;3.23;;;2.93;;
13973;SDS011;7060;43.770;4.008;2023-05-07T03:09:20;3.17;;;2.80;;
13973;SDS011;7060;43.770;4.008;2023-05-07T03:11:48;4.37;;;2.97;;
13973;SDS011;7060;43.770;4.008;2023-05-07T03:14:17;5.70;;;2.67;;
13973;SDS011;7060;43.770;4.008;2023-05-07T03:16:45;2.67;;;2.27;;
13973;SDS011;7060;43.770;4.008;2023-05-07T03:19:14;3.07;;;2.50;;
13973;SDS011;7060;43.770;4.008;2023-05-07T03:21:42;3.20;;;2.90;;
13973;SDS011;7060;43.770;4.008;2023-05-07T03:24:12;2.57;;;2.17;;
13973;SDS011;7060;43.770;4.008;2023-05-07T03:26:40;2.83;;;2.53;;
13973;SDS011;7060;43.770;4.008;2023-05-07T03:29:09;4.03;;;2.63;;
13973;SDS011;7060;43.770;4.008;2023-05-07T03:31:37;3.20;;;2.63;;
13973;SDS011;7060;43.770;4.008;2023-05-07T03:34:06;3.20;;;2.90;;
13973;SDS011;7060;43.770;4.008;2023-05-07T03:36:35;3.40;;;2.80;;
13973;SDS011;7060;43.770;4.008;2023-05-07T03:39:06;2.87;;;2.60;;
13973;SDS011;7060;43.770;4.008;2023-05-07T03:41:40;2.73;;;2.53;;
13973;SDS011;7060;43.770;4.008;2023-05-07T03:44:09;3.00;;;2.53;;
13973;SDS011;7060;43.770;4.008;2023-05-07T03:46:39;4.03;;;3.00;;
13973;SDS011;7060;43.770;4.008;2023-05-07T03:49:10;3.53;;;3.20;;
13973;SDS011;7060;43.770;4.008;2023-05-07T03:51:39;3.20;;;2.90;;
13973;SDS011;7060;43.770;4.008;2023-05-07T03:54:08;4.13;;;3.07;;
13973;SDS011;7060;43.770;4.008;2023-05-07T03:56:43;3.57;;;3.00;;
13973;SDS011;7060;43.770;4.008;2023-05-07T03:59:11;8.10;;;3.23;;
13973;SDS011;7060;43.770;4.008;2023-05-07T04:01:44;4.27;;;3.63;;
13973;SDS011;7060;43.770;4.008;2023-05-07T04:04:23;4.23;;;3.23;;
13973;SDS011;7060;43.770;4.008;2023-05-07T04:06:51;4.27;;;3.17;;
13973;SDS011;7060;43.770;4.008;2023-05-07T04:09:21;4.43;;;3.40;;
13973;SDS011;7060;43.770;4.008;2023-05-07T04:11:51;3.40;;;3.10;;
13973;SDS011;7060;43.770;4.008;2023-05-07T04:14:19;3.53;;;3.10;;
13973;SDS011;7060;43.770;4.008;2023-05-07T04:16:48;3.83;;;3.20;;
13973;SDS011;7060;43.770;4.008;2023-05-07T04:19:16;6.57;;;3.47;;
13973;SDS011;7060;43.770;4.008;2023-05-07T04:21:48;7.80;;;3.50;;
13973;SDS011;7060;43.770;4.008;2023-05-07T04:24:17;4.07;;;3.77;;
13973;SDS011;7060;43.770;4.008;2023-05-07T04:26:45;4.90;;;3.97;;
13973;SDS011;7060;43.770;4.008;2023-05-07T04:29:15;4.07;;;3.67;;
13973;SDS011;7060;43.770;4.008;2023-05-07T04:31:44;5.43;;;3.53;;
13973;SDS011;7060;43.770;4.008;2023-05-07T04:34:13;5.47;;;3.47;;
13973;SDS011;7060;43.770;4.008;2023-05-07T04:36:42;5.13;;;3.60;;
13973;SDS011;7060;43.770;4.008;2023-05-07T04:39:12;4.57;;;3.90;;
13973;SDS011;7060;43.770;4.008;2023-05-07T04:41:44;3.93;;;3.23;;
13973;SDS011;7060;43.770;4.008;2023-05-07T04:44:13;4.83;;;3.53;;
13973;SDS011;7060;43.770;4.008;2023-05-07T04:46:43;4.20;;;3.70;;
13973;SDS011;7060;43.770;4.008;2023-05-07T04:49:12;6.27;;;3.37;;
13973;SDS011;7060;43.770;4.008;2023-05-07T04:51:40;5.10;;;3.40;;
13973;SDS011;7060;43.770;4.008;2023-05-07T04:54:12;3.43;;;3.13;;
13973;SDS011;7060;43.770;4.008;2023-05-07T04:56:40;3.80;;;3.10;;
13973;SDS011;7060;43.770;4.008;2023-05-07T04:59:09;3.83;;;3.37;;
13973;SDS011;7060;43.770;4.008;2023-05-07T05:01:37;4.73;;;3.63;;
13973;SDS011;7060;43.770;4.008;2023-05-07T05:04:08;4.73;;;3.17;;
13973;SDS011;7060;43.770;4.008;2023-05-07T05:06:37;3.70;;;3.13;;
13973;SDS011;7060;43.770;4.008;2023-05-07T05:09:07;5.10;;;2.97;;
13973;SDS011;7060;43.770;4.008;2023-05-07T05:11:36;6.03;;;3.40;;
13973;SDS011;7060;43.770;4.008;2023-05-07T05:14:04;6.80;;;3.20;;
13973;SDS011;7060;43.770;4.008;2023-05-07T05:16:33;5.83;;;3.07;;
13973;SDS011;7060;43.770;4.008;2023-05-07T05:19:01;5.70;;;3.53;;
13973;SDS011;7060;43.770;4.008;2023-05-07T05:21:35;5.77;;;3.50;;
13973;SDS011;7060;43.770;4.008;2023-05-07T05:24:07;3.60;;;2.97;;
13973;SDS011;7060;43.770;4.008;2023-05-07T05:26:36;3.27;;;2.97;;
13973;SDS011;7060;43.770;4.008;2023-05-07T05:29:04;4.83;;;3.47;;
13973;SDS011;7060;43.770;4.008;2023-05-07T05:31:33;5.20;;;3.80;;
13973;SDS011;7060;43.770;4.008;2023-05-07T05:34:03;4.20;;;3.57;;
13973;SDS011;7060;43.770;4.008;2023-05-07T05:36:32;4.60;;;4.10;;
13973;SDS011;7060;43.770;4.008;2023-05-07T05:39:02;3.83;;;3.20;;
13973;SDS011;7060;43.770;4.008;2023-05-07T05:41:31;4.13;;;3.73;;
13973;SDS011;7060;43.770;4.008;2023-05-07T05:44:00;5.23;;;3.90;;
13973;SDS011;7060;43.770;4.008;2023-05-07T05:46:29;4.07;;;3.53;;
13973;SDS011;7060;43.770;4.008;2023-05-07T05:49:00;4.80;;;3.60;;
13973;SDS011;7060;43.770;4.008;2023-05-07T05:51:30;4.13;;;3.73;;
13973;SDS011;7060;43.770;4.008;2023-05-07T05:53:59;6.23;;;3.87;;
13973;SDS011;7060;43.770;4.008;2023-05-07T05:56:29;6.83;;;3.77;;
13973;SDS011;7060;43.770;4.008;2023-05-07T05:58:58;4.47;;;4.07;;
13973;SDS011;7060;43.770;4.008;2023-05-07T06:01:27;4.50;;;4.10;;
13973;SDS011;7060;43.770;4.008;2023-05-07T06:03:58;6.13;;;3.63;;
13973;SDS011;7060;43.770;4.008;2023-05-07T06:06:27;5.47;;;3.90;;
13973;SDS011;7060;43.770;4.008;2023-05-07T06:08:56;3.30;;;3.00;;
13973;SDS011;7060;43.770;4.008;2023-05-07T06:11:34;4.57;;;3.43;;
13973;SDS011;7060;43.770;4.008;2023-05-07T06:14:03;4.90;;;3.40;;
13973;SDS011;7060;43.770;4.008;2023-05-07T06:16:32;3.40;;;3.10;;
13973;SDS011;7060;43.770;4.008;2023-05-07T06:19:00;4.57;;;3.53;;
13973;SDS011;7060;43.770;4.008;2023-05-07T06:21:29;4.70;;;3.20;;
13973;SDS011;7060;43.770;4.008;2023-05-07T06:23:59;4.40;;;3.43;;
13973;SDS011;7060;43.770;4.008;2023-05-07T06:26:27;4.50;;;3.67;;
13973;SDS011;7060;43.770;4.008;2023-05-07T06:28:57;4.23;;;3.30;;
13973;SDS011;7060;43.770;4.008;2023-05-07T06:31:28;4.60;;;3.20;;
13973;SDS011;7060;43.770;4.008;2023-05-07T06:34:02;4.90;;;2.63;;
13973;SDS011;7060;43.770;4.008;2023-05-07T06:36:35;3.93;;;3.00;;
13973;SDS011;7060;43.770;4.008;2023-05-07T06:39:23;4.57;;;3.33;;
13973;SDS011;7060;43.770;4.008;2023-05-07T06:41:52;3.63;;;3.33;;
13973;SDS011;7060;43.770;4.008;2023-05-07T06:44:26;4.10;;;2.93;;
13973;SDS011;7060;43.770;4.008;2023-05-07T06:47:05;5.67;;;2.87;;
13973;SDS011;7060;43.770;4.008;2023-05-07T06:49:36;3.37;;;2.97;;
13973;SDS011;7060;43.770;4.008;2023-05-07T06:52:05;4.17;;;2.77;;
13973;SDS011;7060;43.770;4.008;2023-05-07T06:54:33;3.10;;;2.80;;
13973;SDS011;7060;43.770;4.008;2023-05-07T06:57:02;3.77;;;2.60;;
13973;SDS011;7060;43.770;4.008;2023-05-07T06:59:32;4.47;;;3.10;;
13973;SDS011;7060;43.770;4.008;2023-05-07T07:02:01;5.63;;;2.50;;
13973;SDS011;7060;43.770;4.008;2023-05-07T07:04:29;4.93;;;3.10;;
13973;SDS011;7060;43.770;4.008;2023-05-07T07:07:03;2.63;;;2.43;;
13973;SDS011;7060;43.770;4.008;2023-05-07T07:09:32;3.17;;;2.57;;
13973;SDS011;7060;43.770;4.008;2023-05-07T07:12:02;2.57;;;2.37;;
13973;SDS011;7060;43.770;4.008;2023-05-07T07:14:34;2.73;;;2.50;;
13973;SDS011;7060;43.770;4.008;2023-05-07T07:17:03;3.47;;;2.60;;
13973;SDS011;7060;43.770;4.008;2023-05-07T07:19:32;2.93;;;2.10;;
13973;SDS011;7060;43.770;4.008;2023-05-07T07:22:02;4.97;;;2.30;;
13973;SDS011;7060;43.770;4.008;2023-05-07T07:24:31;2.73;;;2.40;;
13973;SDS011;7060;43.770;4.008;2023-05-07T07:27:03;3.33;;;2.30;;
13973;SDS011;7060;43.770;4.008;2023-05-07T07:29:35;2.23;;;2.00;;
13973;SDS011;7060;43.770;4.008;2023-05-07T07:32:04;2.20;;;2.00;;
13973;SDS011;7060;43.770;4.008;2023-05-07T07:34:32;3.13;;;2.57;;
13973;SDS011;7060;43.770;4.008;2023-05-07T07:37:01;3.17;;;2.30;;
13973;SDS011;7060;43.770;4.008;2023-05-07T07:39:35;3.97;;;2.43;;
13973;SDS011;7060;43.770;4.008;2023-05-07T07:42:06;3.53;;;2.30;;
13973;SDS011;7060;43.770;4.008;2023-05-07T07:44:36;3.47;;;2.27;;
13973;SDS011;7060;43.770;4.008;2023-05-07T07:47:08;3.00;;;2.10;;
13973;SDS011;7060;43.770;4.008;2023-05-07T07:49:38;3.93;;;2.10;;
13973;SDS011;7060;43.770;4.008;2023-05-07T07:52:08;3.43;;;2.20;;
13973;SDS011;7060;43.770;4.008;2023-05-07T07:54:38;2.77;;;2.30;;
13973;SDS011;7060;43.770;4.008;2023-05-07T07:57:07;2.47;;;2.23;;
13973;SDS011;7060;43.770;4.008;2023-05-07T07:59:37;2.47;;;2.20;;
13973;SDS011;7060;43.770;4.008;2023-05-07T08:02:07;2.83;;;2.50;;
13973;SDS011;7060;43.770;4.008;2023-05-07T08:04:37;3.07;;;2.33;;
13973;SDS011;7060;43.770;4.008;2023-05-07T08:07:07;4.83;;;2.20;;
13973;SDS011;7060;43.770;4.008;2023-05-07T08:09:39;5.10;;;2.43;;
13973;SDS011;7060;43.770;4.008;2023-05-07T08:12:09;3.00;;;2.10;;
13973;SDS011;7060;43.770;4.008;2023-05-07T08:14:39;2.60;;;2.40;;
13973;SDS011;7060;43.770;4.008;2023-05-07T08:17:11;4.60;;;1.90;;
13973;SDS011;7060;43.770;4.008;2023-05-07T08:19:43;1.97;;;1.77;;
13973;SDS011;7060;43.770;4.008;2023-05-07T08:22:13;3.07;;;1.67;;
13973;SDS011;7060;43.770;4.008;2023-05-07T08:24:42;2.50;;;1.80;;
13973;SDS011;7060;43.770;4.008;2023-05-07T08:27:12;2.50;;;2.00;;
13973;SDS011;7060;43.770;4.008;2023-05-07T08:29:43;2.57;;;2.00;;
13973;SDS011;7060;43.770;4.008;2023-05-07T08:32:16;2.17;;;1.67;;
13973;SDS011;7060;43.770;4.008;2023-05-07T08:34:44;2.23;;;1.70;;
13973;SDS011;7060;43.770;4.008;2023-05-07T08:37:13;5.77;;;1.90;;
13973;SDS011;7060;43.770;4.008;2023-05-07T08:39:42;1.60;;;1.50;;
13973;SDS011;7060;43.770;4.008;2023-05-07T08:42:17;4.93;;;1.50;;
13973;SDS011;7060;43.770;4.008;2023-05-07T08:44:47;3.13;;;1.40;;
13973;SDS011;7060;43.770;4.008;2023-05-07T08:47:21;2.07;;;1.20;;
13973;SDS011;7060;43.770;4.008;2023-05-07T08:49:59;3.43;;;1.40;;
13973;SDS011;7060;43.770;4.008;2023-05-07T08:52:28;2.00;;;1.40;;
13973;SDS011;7060;43.770;4.008;2023-05-07T08:54:57;8.00;;;1.70;;
13973;SDS011;7060;43.770;4.008;2023-05-07T08:57:27;2.20;;;1.10;;
13973;SDS011;7060;43.770;4.008;2023-05-07T08:59:58;1.80;;;1.00;;
13973;SDS011;7060;43.770;4.008;2023-05-07T09:02:27;3.37;;;1.30;;
13973;SDS011;7060;43.770;4.008;2023-05-07T09:04:56;2.07;;;1.10;;
13973;SDS011;7060;43.770;4.008;2023-05-07T09:07:24;1.10;;;0.83;;
13973;SDS011;7060;43.770;4.008;2023-05-07T09:09:53;1.00;;;0.70;;
13973;SDS011;7060;43.770;4.008;2023-05-07T09:12:22;1.98;;;0.80;;
13973;SDS011;7060;43.770;4.008;2023-05-07T09:14:51;1.60;;;0.70;;
13973;SDS011;7060;43.770;4.008;2023-05-07T09:17:21;1.40;;;0.70;;
13973;SDS011;7060;43.770;4.008;2023-05-07T09:19:49;3.08;;;0.80;;
13973;SDS011;7060;43.770;4.008;2023-05-07T09:22:20;1.25;;;1.00;;
13973;SDS011;7060;43.770;4.008;2023-05-07T09:24:56;1.83;;;0.60;;
13973;SDS011;7060;43.770;4.008;2023-05-07T09:27:26;0.75;;;0.68;;
13973;SDS011;7060;43.770;4.008;2023-05-07T09:29:56;2.22;;;0.80;;
13973;SDS011;7060;43.770;4.008;2023-05-07T09:32:26;3.63;;;1.08;;
13973;SDS011;7060;43.770;4.008;2023-05-07T09:34:57;1.13;;;0.70;;
13973;SDS011;7060;43.770;4.008;2023-05-07T09:37:26;0.77;;;0.73;;
13973;SDS011;7060;43.770;4.008;2023-05-07T09:39:55;1.55;;;0.80;;
13973;SDS011;7060;43.770;4.008;2023-05-07T09:42:26;3.75;;;0.75;;
13973;SDS011;7060;43.770;4.008;2023-05-07T09:44:59;1.48;;;0.80;;
13973;SDS011;7060;43.770;4.008;2023-05-07T09:47:35;1.30;;;0.80;;
13973;SDS011;7060;43.770;4.008;2023-05-07T09:50:07;0.93;;;0.70;;
13973;SDS011;7060;43.770;4.008;2023-05-07T09:52:39;1.55;;;0.77;;
13973;SDS011;7060;43.770;4.008;2023-05-07T09:55:09;1.80;;;0.80;;
13973;SDS011;7060;43.770;4.008;2023-05-07T09:57:40;0.80;;;0.80;;
13973;SDS011;7060;43.770;4.008;2023-05-07T10:00:12;2.15;;;0.77;;
13973;SDS011;7060;43.770;4.008;2023-05-07T10:02:49;2.47;;;0.85;;
13973;SDS011;7060;43.770;4.008;2023-05-07T10:05:28;0.93;;;0.68;;
13973;SDS011;7060;43.770;4.008;2023-05-07T10:07:58;1.27;;;0.60;;
13973;SDS011;7060;43.770;4.008;2023-05-07T10:10:33;1.08;;;0.68;;
13973;SDS011;7060;43.770;4.008;2023-05-07T10:13:04;0.80;;;0.60;;
13973;SDS011;7060;43.770;4.008;2023-05-07T10:15:41;0.82;;;0.60;;
13973;SDS011;7060;43.770;4.008;2023-05-07T10:18:12;0.77;;;0.50;;
13973;SDS011;7060;43.770;4.008;2023-05-07T10:20:46;1.38;;;0.70;;
13973;SDS011;7060;43.770;4.008;2023-05-07T10:23:17;1.15;;;0.80;;
13973;SDS011;7060;43.770;4.008;2023-05-07T10:25:55;0.57;;;0.50;;
13973;SDS011;7060;43.770;4.008;2023-05-07T10:28:29;0.70;;;0.70;;
13973;SDS011;7060;43.770;4.008;2023-05-07T10:31:07;0.93;;;0.57;;
13973;SDS011;7060;43.770;4.008;2023-05-07T10:33:48;1.15;;;0.60;;
13973;SDS011;7060;43.770;4.008;2023-05-07T10:36:21;0.82;;;0.50;;
13973;SDS011;7060;43.770;4.008;2023-05-07T10:38:52;1.15;;;0.60;;
13973;SDS011;7060;43.770;4.008;2023-05-07T10:41:21;5.05;;;0.60;;
13973;SDS011;7060;43.770;4.008;2023-05-07T10:43:50;1.25;;;0.60;;
13973;SDS011;7060;43.770;4.008;2023-05-07T10:46:24;1.15;;;0.60;;
13973;SDS011;7060;43.770;4.008;2023-05-07T10:49:08;1.65;;;0.70;;
13973;SDS011;7060;43.770;4.008;2023-05-07T10:51:46;1.58;;;0.68;;
13973;SDS011;7060;43.770;4.008;2023-05-07T10:55:18;0.85;;;0.68;;
13973;SDS011;7060;43.770;4.008;2023-05-07T10:58:23;0.75;;;0.70;;
13973;SDS011;7060;43.770;4.008;2023-05-07T11:01:14;1.58;;;0.40;;
13973;SDS011;7060;43.770;4.008;2023-05-07T11:09:59;0.40;;;0.30;;
13973;SDS011;7060;43.770;4.008;2023-05-07T11:12:54;0.57;;;0.40;;
13973;SDS011;7060;43.770;4.008;2023-05-07T11:15:38;0.50;;;0.30;;
13973;SDS011;7060;43.770;4.008;2023-05-07T11:18:25;0.73;;;0.50;;
13973;SDS011;7060;43.770;4.008;2023-05-07T11:24:22;1.25;;;0.50;;
13973;SDS011;7060;43.770;4.008;2023-05-07T11:27:03;0.93;;;0.50;;
13973;SDS011;7060;43.770;4.008;2023-05-07T11:29:32;0.60;;;0.40;;
13973;SDS011;7060;43.770;4.008;2023-05-07T11:32:12;0.93;;;0.30;;
13973;SDS011;7060;43.770;4.008;2023-05-07T11:34:51;0.43;;;0.40;;
13973;SDS011;7060;43.770;4.008;2023-05-07T11:37:21;0.52;;;0.45;;
13973;SDS011;7060;43.770;4.008;2023-05-07T11:40:03;0.75;;;0.40;;
13973;SDS011;7060;43.770;4.008;2023-05-07T11:42:33;1.27;;;0.40;;
13973;SDS011;7060;43.770;4.008;2023-05-07T11:45:04;0.43;;;0.40;;
13973;SDS011;7060;43.770;4.008;2023-05-07T11:47:34;2.67;;;0.70;;
13973;SDS011;7060;43.770;4.008;2023-05-07T11:50:03;0.50;;;0.30;;
13973;SDS011;7060;43.770;4.008;2023-05-07T11:52:34;1.40;;;0.40;;
13973;SDS011;7060;43.770;4.008;2023-05-07T11:55:05;0.73;;;0.40;;
13973;SDS011;7060;43.770;4.008;2023-05-07T11:57:35;1.90;;;0.40;;
13973;SDS011;7060;43.770;4.008;2023-05-07T12:00:03;0.63;;;0.30;;
13973;SDS011;7060;43.770;4.008;2023-05-07T12:02:39;1.95;;;0.65;;
13973;SDS011;7060;43.770;4.008;2023-05-07T12:05:09;0.52;;;0.40;;
13973;SDS011;7060;43.770;4.008;2023-05-07T12:07:38;0.50;;;0.30;;
13973;SDS011;7060;43.770;4.008;2023-05-07T12:10:08;0.30;;;0.30;;
13973;SDS011;7060;43.770;4.008;2023-05-07T12:12:40;0.80;;;0.40;;
13973;SDS011;7060;43.770;4.008;2023-05-07T12:15:09;1.60;;;0.50;;
13973;SDS011;7060;43.770;4.008;2023-05-07T12:17:38;0.77;;;0.50;;
13973;SDS011;7060;43.770;4.008;2023-05-07T12:20:08;1.98;;;0.60;;
13973;SDS011;7060;43.770;4.008;2023-05-07T12:22:37;0.43;;;0.35;;
13973;SDS011;7060;43.770;4.008;2023-05-07T12:25:08;0.50;;;0.25;;
13973;SDS011;7060;43.770;4.008;2023-05-07T12:27:37;0.60;;;0.30;;
13973;SDS011;7060;43.770;4.008;2023-05-07T12:30:09;0.73;;;0.30;;
13973;SDS011;7060;43.770;4.008;2023-05-07T12:32:38;0.40;;;0.30;;
13973;SDS011;7060;43.770;4.008;2023-05-07T12:35:07;0.52;;;0.30;;
13973;SDS011;7060;43.770;4.008;2023-05-07T12:37:36;1.20;;;0.20;;
13973;SDS011;7060;43.770;4.008;2023-05-07T12:40:05;0.30;;;0.30;;
13973;SDS011;7060;43.770;4.008;2023-05-07T12:42:37;0.25;;;0.25;;
13973;SDS011;7060;43.770;4.008;2023-05-07T12:45:09;0.43;;;0.20;;
13973;SDS011;7060;43.770;4.008;2023-05-07T12:47:38;0.43;;;0.25;;
13973;SDS011;7060;43.770;4.008;2023-05-07T12:50:07;0.93;;;0.30;;
13973;SDS011;7060;43.770;4.008;2023-05-07T12:52:36;0.32;;;0.17;;
13973;SDS011;7060;43.770;4.008;2023-05-07T12:55:05;1.08;;;0.30;;
13973;SDS011;7060;43.770;4.008;2023-05-07T12:57:38;0.75;;;0.25;;
13973;SDS011;7060;43.770;4.008;2023-05-07T13:00:08;0.47;;;0.28;;
13973;SDS011;7060;43.770;4.008;2023-05-07T13:02:39;0.52;;;0.22;;
13973;SDS011;7060;43.770;4.008;2023-05-07T13:05:11;0.50;;;0.20;;
13973;SDS011;7060;43.770;4.008;2023-05-07T13:07:40;0.30;;;0.30;;
13973;SDS011;7060;43.770;4.008;2023-05-07T13:10:09;0.47;;;0.20;;
13973;SDS011;7060;43.770;4.008;2023-05-07T13:12:39;0.20;;;0.20;;
13973;SDS011;7060;43.770;4.008;2023-05-07T13:15:08;0.30;;;0.30;;
13973;SDS011;7060;43.770;4.008;2023-05-07T13:17:38;0.73;;;0.20;;
13973;SDS011;7060;43.770;4.008;2023-05-07T13:20:08;0.70;;;0.30;;
13973;SDS011;7060;43.770;4.008;2023-05-07T13:22:38;0.28;;;0.20;;
13973;SDS011;7060;43.770;4.008;2023-05-07T13:25:07;0.47;;;0.20;;
13973;SDS011;7060;43.770;4.008;2023-05-07T13:27:36;1.48;;;0.20;;
13973;SDS011;7060;43.770;4.008;2023-05-07T13:30:07;1.77;;;0.30;;
13973;SDS011;7060;43.770;4.008;2023-05-07T13:32:35;2.50;;;0.80;;
13973;SDS011;7060;43.770;4.008;2023-05-07T13:35:04;0.35;;;0.30;;
13973;SDS011;7060;43.770;4.008;2023-05-07T13:37:33;0.70;;;0.30;;
13973;SDS011;7060;43.770;4.008;2023-05-07T13:40:02;0.20;;;0.20;;
13973;SDS011;7060;43.770;4.008;2023-05-07T13:42:32;0.98;;;0.30;;
13973;SDS011;7060;43.770;4.008;2023-05-07T13:45:00;1.10;;;0.30;;
13973;SDS011;7060;43.770;4.008;2023-05-07T13:47:32;0.35;;;0.20;;
13973;SDS011;7060;43.770;4.008;2023-05-07T13:50:00;0.10;;;0.10;;
13973;SDS011;7060;43.770;4.008;2023-05-07T13:52:29;0.80;;;0.20;;
13973;SDS011;7060;43.770;4.008;2023-05-07T13:54:57;0.22;;;0.20;;
13973;SDS011;7060;43.770;4.008;2023-05-07T13:57:26;0.95;;;0.20;;
13973;SDS011;7060;43.770;4.008;2023-05-07T13:59:54;0.50;;;0.20;;
13973;SDS011;7060;43.770;4.008;2023-05-07T14:02:23;0.60;;;0.20;;
13973;SDS011;7060;43.770;4.008;2023-05-07T14:04:53;1.05;;;0.30;;
13973;SDS011;7060;43.770;4.008;2023-05-07T14:07:22;0.30;;;0.20;;
13973;SDS011;7060;43.770;4.008;2023-05-07T14:09:50;0.60;;;0.45;;
13973;SDS011;7060;43.770;4.008;2023-05-07T14:12:19;0.20;;;0.20;;
13973;SDS011;7060;43.770;4.008;2023-05-07T14:14:48;0.35;;;0.20;;
13973;SDS011;7060;43.770;4.008;2023-05-07T14:17:17;1.40;;;0.20;;
13973;SDS011;7060;43.770;4.008;2023-05-07T14:19:46;1.23;;;0.30;;
13973;SDS011;7060;43.770;4.008;2023-05-07T14:22:16;1.05;;;0.30;;
13973;SDS011;7060;43.770;4.008;2023-05-07T14:24:45;0.30;;;0.30;;
13973;SDS011;7060;43.770;4.008;2023-05-07T14:27:31;2.88;;;0.30;;
13973;SDS011;7060;43.770;4.008;2023-05-07T14:29:59;1.17;;;0.30;;
13973;SDS011;7060;43.770;4.008;2023-05-07T14:32:28;0.20;;;0.20;;
13973;SDS011;7060;43.770;4.008;2023-05-07T14:34:56;0.57;;;0.30;;
13973;SDS011;7060;43.770;4.008;2023-05-07T14:37:26;1.10;;;0.38;;
13973;SDS011;7060;43.770;4.008;2023-05-07T14:39:55;1.40;;;0.20;;
13973;SDS011;7060;43.770;4.008;2023-05-07T14:42:23;0.35;;;0.20;;
13973;SDS011;7060;43.770;4.008;2023-05-07T14:44:52;0.75;;;0.20;;
13973;SDS011;7060;43.770;4.008;2023-05-07T14:47:20;0.68;;;0.20;;
13973;SDS011;7060;43.770;4.008;2023-05-07T14:49:49;3.35;;;0.40;;
13973;SDS011;7060;43.770;4.008;2023-05-07T14:52:17;0.20;;;0.20;;
13973;SDS011;7060;43.770;4.008;2023-05-07T14:54:47;1.77;;;0.30;;
13973;SDS011;7060;43.770;4.008;2023-05-07T14:57:16;0.40;;;0.20;;
13973;SDS011;7060;43.770;4.008;2023-05-07T14:59:45;0.40;;;0.20;;
13973;SDS011;7060;43.770;4.008;2023-05-07T15:02:14;0.20;;;0.20;;
13973;SDS011;7060;43.770;4.008;2023-05-07T15:04:47;0.52;;;0.20;;
13973;SDS011;7060;43.770;4.008;2023-05-07T15:07:15;0.88;;;0.30;;
13973;SDS011;7060;43.770;4.008;2023-05-07T15:09:44;0.60;;;0.40;;
13973;SDS011;7060;43.770;4.008;2023-05-07T15:12:15;3.50;;;0.50;;
13973;SDS011;7060;43.770;4.008;2023-05-07T15:14:43;2.63;;;0.60;;
13973;SDS011;7060;43.770;4.008;2023-05-07T15:17:12;2.00;;;0.60;;
13973;SDS011;7060;43.770;4.008;2023-05-07T15:19:41;0.93;;;0.40;;
13973;SDS011;7060;43.770;4.008;2023-05-07T15:22:10;2.70;;;0.85;;
13973;SDS011;7060;43.770;4.008;2023-05-07T15:24:38;3.08;;;0.57;;
13973;SDS011;7060;43.770;4.008;2023-05-07T15:27:08;1.13;;;0.35;;
13973;SDS011;7060;43.770;4.008;2023-05-07T15:29:38;0.80;;;0.57;;
13973;SDS011;7060;43.770;4.008;2023-05-07T15:32:07;2.75;;;0.45;;